Hlavní strana
METAR-TAF:

METAR-TAF

Letiště :

Letiště Astana

Astana, Kazachstán

zeměpisná šířka: 51-12N, zeměpisná délka: 071-27E, výška: 355 m

Aktuální stav počasí

Zpráva byla vytvořena před 35 minutami, v 12:30 UTC
Západní vítr 8 kt, proměnlivý mezi jihozápadním a západoseverozápadním
Teplota 12°C
Vlhkost vzduchu 35%
Tlak 1016 hPa
Viditelnost 10 km a více
Skoro jasno ve výšce 5000 ft, Cumulonimbus.
Oblačno až skoro zataženo ve výšce 8300 ft

METAR: UACC 231230Z 26004MPS 230V300 9999 FEW050CB BKN083 12/M03 Q1016 R22/0///70 NOSIG RMK QFE730/0974

Čas: 19:05 (13:05 UTC)

Předpověď počasí

Zpráva byla vytvořena před 2 hodinami a 5 minutami, v 11:00 UTC
Předpověď platná od 23 v 12 UTC do 24 v 12 UTC
Západojihozápadní vítr 10 kt
Viditelnost 10 km a více
Polojasno ve výšce 3000 ft, Cumulonimbus.
Oblačno až skoro zataženo ve výšce 8000 ft
Dočasný
od 23 v 12 UTC do 23 v 16 UTC
Jihozápadní vítr 16 kt

TAF: UACC 231100Z 2312/2412 24005MPS 9999 SCT030CB BKN080 TX15/2410Z TN00/2401Z TEMPO 2312/2316 23008MPS

Stav a předpovědi počasí z více než 4 000 letišť (zprávy METAR a TAF).

Červené a žluté tečky na mapě představují dostupné meteorologické stanice.

Když kurzor umístíte na tečku, zobrazí se název stanice.

Pak kliknutím zobrazíte stav a předpověď počasí.

Chcete-li změnit mapu, kliknutím na zelené tlačítko se znaménkem +mapu přiblížíte, kliknutím na zelené tlačítko se znaménkem – mapu oddálíte a kliknutím na zelené šipky přejdete na sousední mapy.


METAR-TAF: